Time;durP1;ratioP1;P1;durP2;ratioP2;P2;SDS_P1;SDS_P2;PMS_P1;PMS_P2;Temp;Humidity;BMP_temperature;BMP_pressure;BME280_temperature;BME280_humidity;BME280_pressure;Samples;Min_cycle;Max_cycle;Signal;HPM_P1;HPM_P2
2021/10/06 00:01:41;;;;;;;10.27;8.20;;;;;;;;;;7396450;19;20043;-44
2021/10/06 00:04:08;;;;;;;10.23;7.97;;;;;;;;;;7395009;19;20030;-45
2021/10/06 00:06:35;;;;;;;11.10;7.18;;;;;;;;;;7396489;19;20070;-48
2021/10/06 00:09:03;;;;;;;9.02;6.88;;;;;;;;;;7396082;19;20066;-43
2021/10/06 00:11:30;;;;;;;10.05;7.15;;;;;;;;;;7394301;19;20022;-43
2021/10/06 00:13:58;;;;;;;9.13;6.63;;;;;;;;;;7396202;19;20014;-49
2021/10/06 00:16:26;;;;;;;9.05;6.88;;;;;;;;;;7395805;19;20055;-45
2021/10/06 00:18:56;;;;;;;10.15;7.45;;;;;;;;;;7393813;19;20027;-43
2021/10/06 00:21:25;;;;;;;7.72;6.43;;;;;;;;;;7395906;19;20010;-43
2021/10/06 00:23:52;;;;;;;9.90;6.50;;;;;;;;;;7400020;19;20010;-47
2021/10/06 00:26:20;;;;;;;9.82;7.32;;;;;;;;;;7395157;19;20014;-44
2021/10/06 00:28:47;;;;;;;9.48;6.25;;;;;;;;;;7395606;19;20007;-49
2021/10/06 00:31:15;;;;;;;7.25;6.20;;;;;;;;;;7392074;19;20015;-45
2021/10/06 00:33:43;;;;;;;9.07;7.13;;;;;;;;;;7395191;19;20015;-43
2021/10/06 00:36:11;;;;;;;9.35;7.10;;;;;;;;;;7395264;19;20021;-43
2021/10/06 00:38:38;;;;;;;8.55;6.32;;;;;;;;;;7394084;19;20015;-46
2021/10/06 00:41:06;;;;;;;8.95;7.13;;;;;;;;;;7395451;19;20014;-47
2021/10/06 00:43:33;;;;;;;10.60;6.95;;;;;;;;;;7395423;19;20010;-45
2021/10/06 00:46:01;;;;;;;10.18;8.15;;;;;;;;;;7393180;19;20014;-43
2021/10/06 00:48:28;;;;;;;9.23;7.65;;;;;;;;;;7394826;19;20030;-50
2021/10/06 00:50:56;;;;;;;11.18;8.15;;;;;;;;;;7394568;19;20350;-47
2021/10/06 00:53:28;;;;;;;12.00;8.15;;;;;;;;;;7394534;19;20017;-43
2021/10/06 00:55:55;;;;;;;11.02;8.52;;;;;;;;;;7393269;19;20011;-44
2021/10/06 00:58:23;;;;;;;12.90;8.70;;;;;;;;;;7392750;19;20010;-44
2021/10/06 01:00:50;;;;;;;12.55;9.38;;;;;;;;;;7394490;19;20471;-44
2021/10/06 01:03:20;;;;;;;10.70;8.43;;;;;;;;;;7394387;19;20042;-51
2021/10/06 01:05:49;;;;;;;12.45;8.95;;;;;;;;;;7394675;19;20014;-49
2021/10/06 01:08:17;;;;;;;11.25;8.73;;;;;;;;;;7394034;19;20015;-43
2021/10/06 01:10:46;;;;;;;14.43;9.50;;;;;;;;;;7392022;19;20045;-44
2021/10/06 01:13:16;;;;;;;11.27;8.63;;;;;;;;;;7393659;19;20010;-43
2021/10/06 01:15:44;;;;;;;12.07;8.50;;;;;;;;;;7394274;19;20014;-44
2021/10/06 01:18:11;;;;;;;14.35;9.90;;;;;;;;;;7391459;19;20506;-44
2021/10/06 01:20:39;;;;;;;15.88;9.27;;;;;;;;;;7393856;19;20501;-45
2021/10/06 01:23:07;;;;;;;13.93;10.57;;;;;;;;;;7394593;19;20021;-50
2021/10/06 01:25:35;;;;;;;13.45;9.57;;;;;;;;;;7393990;19;20021;-45
2021/10/06 01:28:03;;;;;;;11.82;9.90;;;;;;;;;;7395928;19;20011;-44
2021/10/06 01:30:31;;;;;;;13.23;10.70;;;;;;;;;;7393002;19;20038;-43
2021/10/06 01:32:58;;;;;;;14.13;10.18;;;;;;;;;;7397244;19;20007;-47
2021/10/06 01:35:26;;;;;;;13.85;10.05;;;;;;;;;;7392943;19;20007;-44
2021/10/06 01:37:54;;;;;;;15.10;10.30;;;;;;;;;;7392370;19;20078;-46
2021/10/06 01:40:23;;;;;;;13.85;10.27;;;;;;;;;;7393348;19;20050;-52
2021/10/06 01:42:53;;;;;;;13.38;9.95;;;;;;;;;;7393480;19;20007;-45
2021/10/06 01:45:25;;;;;;;15.40;10.85;;;;;;;;;;7391635;19;20013;-45
2021/10/06 01:47:53;;;;;;;22.50;12.45;;;;;;;;;;7392924;19;20495;-44
2021/10/06 01:50:24;;;;;;;116.35;59.40;;;;;;;;;;7392526;19;20011;-45
2021/10/06 01:52:53;;;;;;;60.17;33.17;;;;;;;;;;7393052;19;20028;-50
2021/10/06 01:55:30;;;;;;;18.50;12.23;;;;;;;;;;7392524;19;20015;-44
2021/10/06 01:58:00;;;;;;;18.02;12.38;;;;;;;;;;7391792;19;20011;-45
2021/10/06 02:00:29;;;;;;;15.98;12.00;;;;;;;;;;7390922;19;20015;-53
2021/10/06 02:02:57;;;;;;;17.33;11.15;;;;;;;;;;7393796;19;20017;-48
2021/10/06 02:05:25;;;;;;;16.92;11.85;;;;;;;;;;7392281;19;20490;-45
2021/10/06 02:07:54;;;;;;;21.60;11.75;;;;;;;;;;7389892;19;20018;-50
2021/10/06 02:10:21;;;;;;;17.60;11.30;;;;;;;;;;7391700;19;20014;-50
2021/10/06 02:12:49;;;;;;;19.15;11.68;;;;;;;;;;7392476;19;20018;-44
2021/10/06 02:15:16;;;;;;;16.10;11.48;;;;;;;;;;7391752;19;20121;-43
2021/10/06 02:17:44;;;;;;;17.77;11.10;;;;;;;;;;7389981;19;20010;-45
2021/10/06 02:20:11;;;;;;;16.65;11.30;;;;;;;;;;7391752;19;20010;-48
2021/10/06 02:22:39;;;;;;;17.80;11.95;;;;;;;;;;7392624;19;20014;-46
2021/10/06 02:25:07;;;;;;;57.13;29.20;;;;;;;;;;7391862;19;20017;-53
2021/10/06 02:27:35;;;;;;;21.92;13.20;;;;;;;;;;7395629;19;20010;-52
2021/10/06 02:30:04;;;;;;;20.92;12.27;;;;;;;;;;7391607;19;20033;-43
2021/10/06 02:32:32;;;;;;;19.15;11.30;;;;;;;;;;7391587;19;20352;-49
2021/10/06 02:35:00;;;;;;;18.48;11.90;;;;;;;;;;7391906;19;20015;-48
2021/10/06 02:37:27;;;;;;;19.20;11.43;;;;;;;;;;7391485;19;20010;-50
2021/10/06 02:39:54;;;;;;;21.83;12.52;;;;;;;;;;7391599;19;20014;-42
2021/10/06 02:42:22;;;;;;;18.02;11.82;;;;;;;;;;7391349;19;20455;-51
2021/10/06 02:44:50;;;;;;;15.02;11.55;;;;;;;;;;7391678;19;20021;-50
2021/10/06 02:47:18;;;;;;;16.52;10.25;;;;;;;;;;7390785;19;20014;-48
2021/10/06 02:49:45;;;;;;;17.88;11.27;;;;;;;;;;7391164;19;20028;-48
2021/10/06 02:52:13;;;;;;;21.30;11.13;;;;;;;;;;7391182;19;20003;-46
2021/10/06 02:54:40;;;;;;;18.85;11.73;;;;;;;;;;7391407;19;20052;-44
2021/10/06 02:57:08;;;;;;;19.95;12.07;;;;;;;;;;7391168;19;20010;-50
2021/10/06 02:59:36;;;;;;;15.38;11.25;;;;;;;;;;7390371;19;20031;-51
2021/10/06 03:02:03;;;;;;;16.23;11.20;;;;;;;;;;7389794;19;20019;-43
2021/10/06 03:04:31;;;;;;;16.75;11.43;;;;;;;;;;7391086;19;20018;-47
2021/10/06 03:06:59;;;;;;;22.27;13.75;;;;;;;;;;7389519;19;20025;-45
2021/10/06 03:09:26;;;;;;;20.55;12.93;;;;;;;;;;7389041;19;20018;-48
2021/10/06 03:11:54;;;;;;;16.58;11.35;;;;;;;;;;7388797;19;20025;-44
2021/10/06 03:14:21;;;;;;;17.92;11.82;;;;;;;;;;7390763;19;20026;-43
2021/10/06 03:16:49;;;;;;;16.90;10.80;;;;;;;;;;7390654;19;20037;-49
2021/10/06 03:19:16;;;;;;;15.40;10.50;;;;;;;;;;7390310;19;20007;-43
2021/10/06 03:21:44;;;;;;;15.52;10.27;;;;;;;;;;7397758;19;20353;-44
2021/10/06 03:24:11;;;;;;;14.35;10.60;;;;;;;;;;7397720;19;20047;-45
2021/10/06 03:26:38;;;;;;;12.98;9.98;;;;;;;;;;7399765;19;20017;-52
2021/10/06 03:29:06;;;;;;;14.75;9.73;;;;;;;;;;7398436;19;20105;-46
2021/10/06 03:31:33;;;;;;;15.65;10.40;;;;;;;;;;7397421;19;20025;-43
2021/10/06 03:34:02;;;;;;;16.52;10.43;;;;;;;;;;7397834;19;20530;-43
2021/10/06 03:36:29;;;;;;;14.23;10.00;;;;;;;;;;7397305;19;20011;-45
2021/10/06 03:38:56;;;;;;;29.83;17.75;;;;;;;;;;7395693;19;20018;-44
2021/10/06 03:41:23;;;;;;;16.08;10.70;;;;;;;;;;7397172;19;20483;-48
2021/10/06 03:43:51;;;;;;;16.10;10.48;;;;;;;;;;7397115;19;20031;-49
2021/10/06 03:46:18;;;;;;;13.75;10.23;;;;;;;;;;7396361;19;20029;-43
2021/10/06 03:48:46;;;;;;;13.88;9.48;;;;;;;;;;7397042;19;20014;-45
2021/10/06 03:51:13;;;;;;;15.65;9.93;;;;;;;;;;7396835;19;20018;-43
2021/10/06 03:53:40;;;;;;;17.02;10.70;;;;;;;;;;7396843;19;20475;-44
2021/10/06 03:56:08;;;;;;;14.18;10.07;;;;;;;;;;7396951;19;20006;-43
2021/10/06 03:58:36;;;;;;;17.45;10.88;;;;;;;;;;7395622;19;20007;-44
2021/10/06 04:01:03;;;;;;;14.43;10.73;;;;;;;;;;7396361;19;20601;-42
2021/10/06 04:03:31;;;;;;;14.75;10.10;;;;;;;;;;7396600;19;20210;-43
2021/10/06 04:05:58;;;;;;;16.73;10.25;;;;;;;;;;7396177;19;20011;-48
2021/10/06 04:08:25;;;;;;;16.30;9.60;;;;;;;;;;7396031;19;20007;-49
2021/10/06 04:10:53;;;;;;;14.00;9.27;;;;;;;;;;7395196;19;20122;-43
2021/10/06 04:13:22;;;;;;;13.07;8.73;;;;;;;;;;7397412;19;20346;-44
2021/10/06 04:15:50;;;;;;;14.38;9.25;;;;;;;;;;7395719;19;20010;-48
2021/10/06 04:18:17;;;;;;;14.65;9.73;;;;;;;;;;7393970;19;20039;-44
2021/10/06 04:20:45;;;;;;;14.23;8.88;;;;;;;;;;7395651;19;20006;-50
2021/10/06 04:23:13;;;;;;;13.02;9.05;;;;;;;;;;7395573;19;20495;-53
2021/10/06 04:25:41;;;;;;;13.15;9.88;;;;;;;;;;7394455;19;20007;-42
2021/10/06 04:28:11;;;;;;;15.00;9.23;;;;;;;;;;7399757;19;20508;-45
2021/10/06 04:30:38;;;;;;;13.40;9.05;;;;;;;;;;7393898;19;20007;-42
2021/10/06 04:33:06;;;;;;;15.02;9.70;;;;;;;;;;7395602;19;20007;-50
2021/10/06 04:35:33;;;;;;;17.67;10.05;;;;;;;;;;7395479;19;20030;-44
2021/10/06 04:38:00;;;;;;;121.40;46.35;;;;;;;;;;7395156;19;20022;-47
2021/10/06 04:40:28;;;;;;;30.00;16.10;;;;;;;;;;7395018;19;20010;-43
2021/10/06 04:42:55;;;;;;;16.75;9.75;;;;;;;;;;7394936;19;20486;-52
2021/10/06 04:45:23;;;;;;;15.18;9.45;;;;;;;;;;7394969;19;20070;-45
2021/10/06 04:47:51;;;;;;;14.48;8.73;;;;;;;;;;7394450;19;20011;-43
2021/10/06 04:50:18;;;;;;;13.63;8.95;;;;;;;;;;7395206;19;20083;-45
2021/10/06 04:52:46;;;;;;;14.27;9.68;;;;;;;;;;7393302;19;20034;-51
2021/10/06 04:55:13;;;;;;;18.38;8.63;;;;;;;;;;7396690;19;20014;-44
2021/10/06 04:57:41;;;;;;;14.48;8.93;;;;;;;;;;7395024;19;20014;-44
2021/10/06 05:00:09;;;;;;;12.25;8.45;;;;;;;;;;7392691;19;20010;-48
2021/10/06 05:02:36;;;;;;;13.23;9.02;;;;;;;;;;7395258;19;20025;-42
2021/10/06 05:05:04;;;;;;;12.90;9.13;;;;;;;;;;7394304;19;20013;-44
2021/10/06 05:07:31;;;;;;;15.25;9.23;;;;;;;;;;7394717;19;20635;-51
2021/10/06 05:09:59;;;;;;;14.43;8.75;;;;;;;;;;7394257;19;20027;-46
2021/10/06 05:12:26;;;;;;;12.23;8.80;;;;;;;;;;7396216;19;20023;-48
2021/10/06 05:14:54;;;;;;;15.95;8.60;;;;;;;;;;7398148;19;20015;-43
2021/10/06 05:17:21;;;;;;;16.33;9.05;;;;;;;;;;7394004;19;20014;-43
2021/10/06 05:19:48;;;;;;;14.00;8.52;;;;;;;;;;7392859;19;20003;-43
2021/10/06 05:22:17;;;;;;;13.82;8.70;;;;;;;;;;7393970;19;20010;-44
2021/10/06 05:24:44;;;;;;;14.05;8.80;;;;;;;;;;7393501;19;20011;-52
2021/10/06 05:27:12;;;;;;;296.80;115.95;;;;;;;;;;7395849;19;20010;-44
2021/10/06 05:29:39;;;;;;;45.22;20.45;;;;;;;;;;7393975;19;20011;-42
2021/10/06 05:32:07;;;;;;;17.10;9.50;;;;;;;;;;7395172;19;20485;-48
2021/10/06 05:34:34;;;;;;;14.48;8.77;;;;;;;;;;7393138;19;20120;-43
2021/10/06 05:37:02;;;;;;;13.50;8.18;;;;;;;;;;7393194;19;20038;-46
2021/10/06 05:39:29;;;;;;;14.18;8.38;;;;;;;;;;7392095;19;20015;-48
2021/10/06 05:41:57;;;;;;;11.77;7.63;;;;;;;;;;7391055;19;20506;-48
2021/10/06 05:44:29;;;;;;;13.45;7.68;;;;;;;;;;7393304;19;20078;-42
2021/10/06 05:46:56;;;;;;;13.32;8.55;;;;;;;;;;7392777;19;20489;-49
2021/10/06 05:49:24;;;;;;;12.90;8.13;;;;;;;;;;7392909;19;20010;-45
2021/10/06 05:51:51;;;;;;;11.43;7.45;;;;;;;;;;7392657;19;20027;-45
2021/10/06 05:54:19;;;;;;;12.25;8.20;;;;;;;;;;7392651;19;20018;-44
2021/10/06 05:56:46;;;;;;;13.00;8.38;;;;;;;;;;7392959;19;20109;-50
2021/10/06 05:59:14;;;;;;;15.30;7.85;;;;;;;;;;7389868;19;20015;-43
2021/10/06 06:01:41;;;;;;;13.93;8.23;;;;;;;;;;7392622;19;20039;-48
2021/10/06 06:04:09;;;;;;;14.68;8.45;;;;;;;;;;7392780;19;20011;-50
2021/10/06 06:06:41;;;;;;;10.93;7.85;;;;;;;;;;7392549;19;20010;-43
2021/10/06 06:09:10;;;;;;;13.30;7.65;;;;;;;;;;7392563;19;20016;-48
2021/10/06 06:11:37;;;;;;;142.40;60.17;;;;;;;;;;7391460;19;20010;-49
2021/10/06 06:14:06;;;;;;;18.02;9.90;;;;;;;;;;7392036;19;20027;-46
2021/10/06 06:16:33;;;;;;;12.98;9.05;;;;;;;;;;7392053;19;20024;-44
2021/10/06 06:19:01;;;;;;;13.43;8.75;;;;;;;;;;7391505;19;20046;-44
2021/10/06 06:21:28;;;;;;;11.25;8.23;;;;;;;;;;7395301;19;20035;-46
2021/10/06 06:23:56;;;;;;;13.23;7.85;;;;;;;;;;7392135;19;20012;-44
2021/10/06 06:26:23;;;;;;;9.85;7.13;;;;;;;;;;7392687;19;20074;-46
2021/10/06 06:28:51;;;;;;;12.80;8.40;;;;;;;;;;7391541;19;20019;-46
2021/10/06 06:31:18;;;;;;;13.18;8.27;;;;;;;;;;7391114;19;20010;-51
2021/10/06 06:33:46;;;;;;;14.90;8.20;;;;;;;;;;7391361;19;20509;-43
2021/10/06 06:36:14;;;;;;;11.93;7.15;;;;;;;;;;7391332;19;20018;-43
2021/10/06 06:38:42;;;;;;;12.63;8.00;;;;;;;;;;7390395;19;20034;-49
2021/10/06 06:41:09;;;;;;;13.05;8.02;;;;;;;;;;7391604;19;20483;-47
2021/10/06 06:43:36;;;;;;;12.18;7.65;;;;;;;;;;7392179;19;20034;-45
2021/10/06 06:46:04;;;;;;;12.65;7.68;;;;;;;;;;7391346;19;20015;-44
2021/10/06 06:48:32;;;;;;;11.13;7.55;;;;;;;;;;7390993;19;20015;-43
2021/10/06 06:51:00;;;;;;;11.85;7.95;;;;;;;;;;7392644;19;20127;-43
2021/10/06 06:53:28;;;;;;;11.80;7.43;;;;;;;;;;7395014;19;20038;-43
2021/10/06 06:55:56;;;;;;;14.48;8.00;;;;;;;;;;7397770;19;20017;-43
2021/10/06 06:58:25;;;;;;;11.52;7.90;;;;;;;;;;7398422;19;20482;-46
2021/10/06 07:00:53;;;;;;;11.82;7.90;;;;;;;;;;7395100;19;20010;-44
2021/10/06 07:03:21;;;;;;;11.35;7.22;;;;;;;;;;7397991;19;20010;-48
2021/10/06 07:05:48;;;;;;;14.25;8.82;;;;;;;;;;7398644;19;20019;-44
2021/10/06 07:08:16;;;;;;;13.77;8.80;;;;;;;;;;7398201;19;20010;-54
2021/10/06 07:10:43;;;;;;;14.90;9.88;;;;;;;;;;7397816;19;20019;-43
2021/10/06 07:13:29;;;;;;;25.40;14.88;;;;;;;;;;7397913;19;20015;-46
2021/10/06 07:15:57;;;;;;;280.20;118.80;;;;;;;;;;7398315;19;20010;-44
2021/10/06 07:18:25;;;;;;;28.45;15.57;;;;;;;;;;7398198;19;20015;-43
2021/10/06 07:20:52;;;;;;;12.15;8.27;;;;;;;;;;7395064;19;20372;-44
2021/10/06 07:23:22;;;;;;;11.25;6.82;;;;;;;;;;7397421;19;20010;-50
2021/10/06 07:25:50;;;;;;;11.52;8.30;;;;;;;;;;7397887;19;20022;-50
2021/10/06 07:28:17;;;;;;;13.20;7.50;;;;;;;;;;7402291;19;20021;-46
2021/10/06 07:30:44;;;;;;;12.20;7.13;;;;;;;;;;7397211;19;20034;-44
2021/10/06 07:33:12;;;;;;;14.65;8.90;;;;;;;;;;7397347;19;20034;-44
2021/10/06 07:35:40;;;;;;;13.73;7.95;;;;;;;;;;7396202;19;20034;-43
2021/10/06 07:38:07;;;;;;;11.05;7.57;;;;;;;;;;7397597;19;20006;-55
2021/10/06 07:40:35;;;;;;;11.50;7.53;;;;;;;;;;7394905;19;20010;-49
2021/10/06 07:43:03;;;;;;;12.02;7.35;;;;;;;;;;7398922;19;20068;-47
2021/10/06 07:45:34;;;;;;;11.07;7.68;;;;;;;;;;7396769;19;20007;-43
2021/10/06 07:48:02;;;;;;;12.85;7.72;;;;;;;;;;7397224;19;20006;-49
2021/10/06 07:50:29;;;;;;;11.63;7.70;;;;;;;;;;7396669;19;20503;-49
2021/10/06 07:52:56;;;;;;;11.05;8.10;;;;;;;;;;7396460;19;20510;-46
2021/10/06 07:55:24;;;;;;;11.98;7.30;;;;;;;;;;7396587;19;20010;-43
2021/10/06 07:57:51;;;;;;;11.75;8.40;;;;;;;;;;7396450;19;20010;-44
2021/10/06 08:00:19;;;;;;;9.95;7.72;;;;;;;;;;7394438;19;20014;-53
2021/10/06 08:02:47;;;;;;;11.55;8.23;;;;;;;;;;7396720;19;20018;-41
2021/10/06 08:05:14;;;;;;;12.48;8.27;;;;;;;;;;7394996;19;20019;-46
2021/10/06 08:07:42;;;;;;;15.65;8.00;;;;;;;;;;7394874;19;20022;-44
2021/10/06 08:10:10;;;;;;;11.13;7.55;;;;;;;;;;7396228;19;20010;-47
2021/10/06 08:12:37;;;;;;;13.23;7.70;;;;;;;;;;7393585;19;20011;-43
2021/10/06 08:15:08;;;;;;;11.27;7.30;;;;;;;;;;7395935;19;20358;-48
2021/10/06 08:17:35;;;;;;;14.18;7.97;;;;;;;;;;7395679;19;20017;-42
2021/10/06 08:20:04;;;;;;;15.60;9.98;;;;;;;;;;7394039;19;20518;-45
2021/10/06 08:22:31;;;;;;;12.60;9.05;;;;;;;;;;7395847;19;20007;-41
2021/10/06 08:24:58;;;;;;;12.55;8.23;;;;;;;;;;7395816;19;20006;-40
2021/10/06 08:27:26;;;;;;;12.32;7.32;;;;;;;;;;7398278;19;20006;-47
2021/10/06 08:29:53;;;;;;;12.85;8.15;;;;;;;;;;7395839;19;20010;-52
2021/10/06 08:32:21;;;;;;;13.45;8.07;;;;;;;;;;7395381;19;20007;-44
2021/10/06 08:34:49;;;;;;;13.15;7.28;;;;;;;;;;7394999;19;20032;-52
2021/10/06 08:37:16;;;;;;;11.38;7.50;;;;;;;;;;7395321;19;20006;-48
2021/10/06 08:39:44;;;;;;;10.38;7.30;;;;;;;;;;7394608;19;20031;-42
2021/10/06 08:42:11;;;;;;;14.27;7.43;;;;;;;;;;7395419;19;20018;-42
2021/10/06 08:44:41;;;;;;;13.15;7.55;;;;;;;;;;7395617;19;20022;-47
2021/10/06 08:47:08;;;;;;;12.52;7.70;;;;;;;;;;7395038;19;20023;-44
2021/10/06 08:49:36;;;;;;;11.75;7.82;;;;;;;;;;7395541;19;20095;-43
2021/10/06 08:52:04;;;;;;;12.15;7.35;;;;;;;;;;7395022;19;20026;-43
2021/10/06 08:54:33;;;;;;;13.18;8.65;;;;;;;;;;7394969;19;20010;-50
2021/10/06 08:57:00;;;;;;;11.55;7.90;;;;;;;;;;7394601;19;20014;-42
2021/10/06 08:59:28;;;;;;;12.02;7.88;;;;;;;;;;7393842;19;20516;-41
2021/10/06 09:02:09;;;;;;;17.50;8.63;;;;;;;;;;7394577;19;20014;-44
2021/10/06 09:04:36;;;;;;;18.48;8.88;;;;;;;;;;7394520;19;20088;-44
2021/10/06 09:07:05;;;;;;;11.38;7.97;;;;;;;;;;7394026;19;20014;-52
2021/10/06 09:09:34;;;;;;;8.85;7.10;;;;;;;;;;7394264;19;20086;-41
2021/10/06 09:12:08;;;;;;;16.83;8.52;;;;;;;;;;7392272;19;20506;-41
2021/10/06 09:14:46;;;;;;;10.27;7.45;;;;;;;;;;7394478;19;20014;-48
2021/10/06 09:17:19;;;;;;;11.77;6.50;;;;;;;;;;7392744;19;20155;-44
2021/10/06 09:19:56;;;;;;;10.68;7.28;;;;;;;;;;7393133;19;20014;-49
2021/10/06 09:22:30;;;;;;;9.50;6.47;;;;;;;;;;7394029;19;20010;-48
2021/10/06 09:25:15;;;;;;;11.18;7.35;;;;;;;;;;7393539;19;20014;-46
2021/10/06 09:27:43;;;;;;;94.15;55.17;;;;;;;;;;7396869;19;20015;-41
2021/10/06 09:30:13;;;;;;;92.45;45.45;;;;;;;;;;7393538;19;20455;-60
2021/10/06 09:32:45;;;;;;;14.98;8.00;;;;;;;;;;7396488;19;20015;-48
2021/10/06 09:35:18;;;;;;;10.02;6.90;;;;;;;;;;7392729;19;20010;-46
2021/10/06 09:37:54;;;;;;;9.63;6.80;;;;;;;;;;7393652;19;20050;-51
2021/10/06 09:40:29;;;;;;;11.50;6.35;;;;;;;;;;7392360;19;20025;-41
2021/10/06 09:42:59;;;;;;;11.45;7.78;;;;;;;;;;7392942;19;20018;-55
2021/10/06 09:45:29;;;;;;;9.77;7.07;;;;;;;;;;7393029;19;20010;-45
2021/10/06 09:48:09;;;;;;;24.73;6.97;;;;;;;;;;7392742;19;20482;-44
2021/10/06 09:50:46;;;;;;;11.00;6.80;;;;;;;;;;7392882;19;20070;-45
2021/10/06 09:53:15;;;;;;;15.35;6.97;;;;;;;;;;7393116;19;20034;-42
2021/10/06 09:55:45;;;;;;;11.02;7.03;;;;;;;;;;7393111;19;20074;-44
2021/10/06 09:58:14;;;;;;;10.60;7.05;;;;;;;;;;7392808;19;20034;-49
2021/10/06 10:00:45;;;;;;;169.00;74.50;;;;;;;;;;7393611;19;20010;-44
2021/10/06 10:03:13;;;;;;;18.10;9.68;;;;;;;;;;7393264;19;20007;-46
2021/10/06 10:05:41;;;;;;;11.63;7.45;;;;;;;;;;7392637;19;20604;-49
2021/10/06 10:08:09;;;;;;;11.55;7.35;;;;;;;;;;7392653;19;20017;-52
2021/10/06 10:10:38;;;;;;;14.00;6.50;;;;;;;;;;7391669;19;20010;-47
2021/10/06 10:13:06;;;;;;;9.68;6.45;;;;;;;;;;7392136;19;20022;-49
2021/10/06 10:15:33;;;;;;;10.75;6.22;;;;;;;;;;7392122;19;20014;-52
2021/10/06 10:18:05;;;;;;;9.98;6.72;;;;;;;;;;7392132;19;20014;-45
2021/10/06 10:20:41;;;;;;;9.82;7.25;;;;;;;;;;7391258;19;20014;-46
2021/10/06 10:23:13;;;;;;;12.68;7.38;;;;;;;;;;7392244;19;20019;-52
2021/10/06 10:25:46;;;;;;;11.25;6.28;;;;;;;;;;7390904;19;20018;-46
2021/10/06 10:28:16;;;;;;;11.50;6.10;;;;;;;;;;7395639;19;20013;-44
2021/10/06 10:30:53;;;;;;;12.50;6.90;;;;;;;;;;7389835;19;20007;-48
2021/10/06 10:33:40;;;;;;;9.68;6.15;;;;;;;;;;7391358;19;20485;-52
2021/10/06 10:36:29;;;;;;;10.00;5.53;;;;;;;;;;7391656;19;20033;-48
2021/10/06 10:38:57;;;;;;;8.48;6.45;;;;;;;;;;7391431;19;20081;-49
2021/10/06 10:41:48;;;;;;;9.00;6.13;;;;;;;;;;7389541;19;20014;-48
2021/10/06 10:44:41;;;;;;;52.63;21.58;;;;;;;;;;7391694;19;20007;-45
2021/10/06 10:47:09;;;;;;;61.70;33.30;;;;;;;;;;7390037;19;20014;-45
2021/10/06 10:49:42;;;;;;;11.65;7.10;;;;;;;;;;7391121;19;20029;-47
2021/10/06 10:52:11;;;;;;;12.48;5.78;;;;;;;;;;7391141;19;20014;-50
2021/10/06 10:54:41;;;;;;;9.73;6.20;;;;;;;;;;7391775;19;20011;-50
2021/10/06 10:57:25;;;;;;;7.72;5.45;;;;;;;;;;7391506;19;20006;-49
2021/10/06 10:59:57;;;;;;;11.02;6.43;;;;;;;;;;7390209;19;20350;-45
2021/10/06 11:02:33;;;;;;;7.15;5.30;;;;;;;;;;7391327;19;20027;-55
2021/10/06 11:05:07;;;;;;;12.80;6.00;;;;;;;;;;7389288;19;20031;-45
2021/10/06 11:07:49;;;;;;;9.38;5.97;;;;;;;;;;7390875;19;20038;-43
2021/10/06 11:10:19;;;;;;;12.27;5.70;;;;;;;;;;7390851;19;20021;-50
2021/10/06 11:13:05;;;;;;;9.65;5.55;;;;;;;;;;7390642;19;20010;-48
2021/10/06 11:15:34;;;;;;;9.80;6.78;;;;;;;;;;7390898;19;20094;-49
2021/10/06 11:18:12;;;;;;;9.50;6.32;;;;;;;;;;7390828;19;20025;-46
2021/10/06 11:20:40;;;;;;;13.07;6.35;;;;;;;;;;7390057;19;20010;-54
2021/10/06 11:23:31;;;;;;;10.25;5.90;;;;;;;;;;7388425;19;20034;-47
2021/10/06 11:26:25;;;;;;;10.63;5.85;;;;;;;;;;7390008;19;20011;-47
2021/10/06 11:28:54;;;;;;;8.52;5.75;;;;;;;;;;7390414;19;20007;-42
2021/10/06 11:31:28;;;;;;;12.98;6.20;;;;;;;;;;7390140;19;20034;-52
2021/10/06 11:33:56;;;;;;;;;;;;;;;;;;7390350;19;20014;-52
2021/10/06 11:36:26;;;;;;;9.02;6.35;;;;;;;;;;7390083;19;19914;-56
2021/10/06 11:39:06;;;;;;;11.10;7.13;;;;;;;;;;7390143;19;20015;-44
2021/10/06 11:41:36;;;;;;;10.68;5.70;;;;;;;;;;7396646;19;20019;-45
2021/10/06 11:44:04;;;;;;;177.35;83.80;;;;;;;;;;7398225;19;20014;-43
2021/10/06 11:46:34;;;;;;;21.58;12.15;;;;;;;;;;7396814;19;20015;-51
2021/10/06 11:49:07;;;;;;;10.00;5.63;;;;;;;;;;7396951;19;20032;-50
2021/10/06 11:51:48;;;;;;;9.15;5.88;;;;;;;;;;7397059;19;20482;-54
2021/10/06 11:54:19;;;;;;;13.32;5.50;;;;;;;;;;7396373;19;20007;-47
2021/10/06 11:56:52;;;;;;;8.80;5.85;;;;;;;;;;7396220;19;20007;-43
2021/10/06 11:59:21;;;;;;;11.38;5.85;;;;;;;;;;7395562;19;20006;-51
2021/10/06 12:01:59;;;;;;;8.95;5.60;;;;;;;;;;7394361;19;20010;-46
2021/10/06 12:04:38;;;;;;;11.10;5.93;;;;;;;;;;7396465;19;20023;-48
2021/10/06 12:07:17;;;;;;;8.05;5.50;;;;;;;;;;7396047;19;20010;-43
2021/10/06 12:09:50;;;;;;;7.95;5.43;;;;;;;;;;7396370;19;20080;-42
2021/10/06 12:12:39;;;;;;;8.48;5.35;;;;;;;;;;7393922;19;20019;-51
2021/10/06 12:15:13;;;;;;;11.52;5.63;;;;;;;;;;7396299;19;20007;-44
2021/10/06 12:17:45;;;;;;;9.63;6.03;;;;;;;;;;7395954;19;20011;-49
2021/10/06 12:20:21;;;;;;;7.68;5.40;;;;;;;;;;7395919;19;20089;-51
2021/10/06 12:22:55;;;;;;;10.52;5.85;;;;;;;;;;7396150;19;20070;-42
2021/10/06 12:25:32;;;;;;;9.25;6.10;;;;;;;;;;7395330;19;20025;-45
2021/10/06 12:28:06;;;;;;;9.88;6.40;;;;;;;;;;7399367;19;20010;-50
2021/10/06 12:30:36;;;;;;;9.18;5.72;;;;;;;;;;7395153;19;20485;-43
2021/10/06 12:33:13;;;;;;;10.05;5.85;;;;;;;;;;7395857;19;20046;-43
2021/10/06 12:35:45;;;;;;;8.63;5.55;;;;;;;;;;7395429;19;20073;-47
2021/10/06 12:38:14;;;;;;;6.97;5.18;;;;;;;;;;7395993;19;20043;-46
2021/10/06 12:40:44;;;;;;;11.27;5.47;;;;;;;;;;7393874;19;20039;-52
2021/10/06 12:43:23;;;;;;;8.80;5.60;;;;;;;;;;7395592;19;20022;-42
2021/10/06 12:46:10;;;;;;;115.03;45.28;;;;;;;;;;7394824;19;20487;-45
2021/10/06 12:48:46;;;;;;;9.20;6.22;;;;;;;;;;7394748;19;20022;-44
2021/10/06 12:51:17;;;;;;;11.13;5.75;;;;;;;;;;7394648;19;20054;-43
2021/10/06 12:53:56;;;;;;;12.52;5.07;;;;;;;;;;7394582;19;20010;-45
2021/10/06 12:56:31;;;;;;;8.40;5.55;;;;;;;;;;7393255;19;20458;-48
2021/10/06 12:59:11;;;;;;;6.72;5.03;;;;;;;;;;7394528;19;20021;-45
2021/10/06 13:01:40;;;;;;;11.77;5.35;;;;;;;;;;7393410;19;20018;-48
2021/10/06 13:04:11;;;;;;;12.10;6.38;;;;;;;;;;7394302;19;20022;-44
2021/10/06 13:06:39;;;;;;;9.50;5.25;;;;;;;;;;7394831;19;20121;-48
2021/10/06 13:09:07;;;;;;;7.60;5.43;;;;;;;;;;7394458;19;20023;-48
2021/10/06 13:11:35;;;;;;;12.52;5.72;;;;;;;;;;7391187;19;20039;-43
2021/10/06 13:14:03;;;;;;;7.85;5.30;;;;;;;;;;7393783;19;20017;-42
2021/10/06 13:16:31;;;;;;;9.18;5.53;;;;;;;;;;7394107;19;20082;-42
2021/10/06 13:18:59;;;;;;;10.45;6.00;;;;;;;;;;7394205;19;20018;-44
2021/10/06 13:21:28;;;;;;;11.68;6.47;;;;;;;;;;7392236;19;20363;-45
2021/10/06 13:23:57;;;;;;;8.05;5.40;;;;;;;;;;7392154;19;20014;-47
2021/10/06 13:26:25;;;;;;;9.15;5.53;;;;;;;;;;7393999;19;20009;-48
2021/10/06 13:28:53;;;;;;;10.15;6.57;;;;;;;;;;7393649;19;20017;-42
2021/10/06 13:31:21;;;;;;;7.97;5.88;;;;;;;;;;7393688;19;20031;-45
2021/10/06 13:33:49;;;;;;;9.80;5.80;;;;;;;;;;7393903;19;20018;-43
2021/10/06 13:36:16;;;;;;;11.00;5.65;;;;;;;;;;7393638;19;20011;-47
2021/10/06 13:38:44;;;;;;;11.10;6.05;;;;;;;;;;7393824;19;20022;-45
2021/10/06 13:41:13;;;;;;;68.72;40.08;;;;;;;;;;7392110;19;20015;-44
2021/10/06 13:43:41;;;;;;;13.63;7.50;;;;;;;;;;7393115;19;20476;-43
2021/10/06 13:46:09;;;;;;;11.52;6.68;;;;;;;;;;7392947;19;20019;-46
2021/10/06 13:48:40;;;;;;;9.90;6.10;;;;;;;;;;7393331;19;20014;-45
2021/10/06 13:51:09;;;;;;;10.70;5.63;;;;;;;;;;7392904;19;20007;-47
2021/10/06 13:53:37;;;;;;;10.07;5.85;;;;;;;;;;7392759;19;20010;-46
2021/10/06 13:56:05;;;;;;;11.18;5.60;;;;;;;;;;7392662;19;20490;-45
2021/10/06 13:58:35;;;;;;;8.10;5.82;;;;;;;;;;7392656;19;20011;-51
2021/10/06 14:01:04;;;;;;;15.82;6.03;;;;;;;;;;7392016;19;20010;-43
2021/10/06 14:03:35;;;;;;;14.40;5.85;;;;;;;;;;7391988;19;20007;-47
2021/10/06 14:06:03;;;;;;;8.23;5.40;;;;;;;;;;7392115;19;20471;-42
2021/10/06 14:08:32;;;;;;;8.50;5.70;;;;;;;;;;7392222;19;20011;-49
2021/10/06 14:10:59;;;;;;;7.38;5.60;;;;;;;;;;7390001;19;20344;-49
2021/10/06 14:13:26;;;;;;;9.05;6.07;;;;;;;;;;7392051;19;20508;-47
2021/10/06 14:15:54;;;;;;;8.93;5.72;;;;;;;;;;7392271;19;20018;-45
2021/10/06 14:18:22;;;;;;;12.30;6.43;;;;;;;;;;7395982;19;20010;-44
2021/10/06 14:20:51;;;;;;;12.15;6.55;;;;;;;;;;7391798;19;20039;-51
2021/10/06 14:23:19;;;;;;;70.22;36.63;;;;;;;;;;7391843;19;20019;-46
2021/10/06 14:25:49;;;;;;;27.40;15.70;;;;;;;;;;7392290;19;20010;-47
2021/10/06 14:28:18;;;;;;;9.93;6.85;;;;;;;;;;7396808;19;20022;-45
2021/10/06 14:30:46;;;;;;;9.13;6.13;;;;;;;;;;7391738;19;20010;-48
2021/10/06 14:33:15;;;;;;;12.23;6.20;;;;;;;;;;7391291;19;20482;-45
2021/10/06 14:35:43;;;;;;;11.45;5.88;;;;;;;;;;7391690;19;20018;-42
2021/10/06 14:38:11;;;;;;;7.45;5.18;;;;;;;;;;7391862;19;20532;-43
2021/10/06 14:40:39;;;;;;;9.07;6.05;;;;;;;;;;7391468;19;20014;-45
2021/10/06 14:43:07;;;;;;;14.38;6.20;;;;;;;;;;7391447;19;20074;-48